sensor_id;sensor_type;location;lat;lon;timestamp;P1;durP1;ratioP1;P2;durP2;ratioP2
38851;SDS011;24605;50.092;9.182;2022-12-18T00:02:06;38.15;;;15.48;;
38851;SDS011;24605;50.092;9.182;2022-12-18T00:04:33;40.15;;;16.17;;
38851;SDS011;24605;50.092;9.182;2022-12-18T00:06:59;37.88;;;15.27;;
38851;SDS011;24605;50.092;9.182;2022-12-18T00:09:26;34.72;;;16.02;;
38851;SDS011;24605;50.092;9.182;2022-12-18T00:11:52;41.10;;;15.65;;
38851;SDS011;24605;50.092;9.182;2022-12-18T00:14:20;35.00;;;14.65;;
38851;SDS011;24605;50.092;9.182;2022-12-18T00:16:47;41.17;;;16.30;;
38851;SDS011;24605;50.092;9.182;2022-12-18T00:19:13;40.88;;;16.30;;
38851;SDS011;24605;50.092;9.182;2022-12-18T00:21:41;42.25;;;15.18;;
38851;SDS011;24605;50.092;9.182;2022-12-18T00:24:08;38.70;;;16.38;;
38851;SDS011;24605;50.092;9.182;2022-12-18T00:26:35;42.25;;;15.25;;
38851;SDS011;24605;50.092;9.182;2022-12-18T00:29:04;35.85;;;15.15;;
38851;SDS011;24605;50.092;9.182;2022-12-18T00:31:33;34.85;;;14.88;;
38851;SDS011;24605;50.092;9.182;2022-12-18T00:34:00;37.55;;;16.13;;
38851;SDS011;24605;50.092;9.182;2022-12-18T00:36:27;36.42;;;14.30;;
38851;SDS011;24605;50.092;9.182;2022-12-18T00:38:55;37.67;;;15.95;;
38851;SDS011;24605;50.092;9.182;2022-12-18T00:41:23;41.03;;;16.70;;
38851;SDS011;24605;50.092;9.182;2022-12-18T00:44:09;34.50;;;15.30;;
38851;SDS011;24605;50.092;9.182;2022-12-18T00:46:37;37.80;;;17.20;;
38851;SDS011;24605;50.092;9.182;2022-12-18T00:49:04;36.75;;;15.00;;
38851;SDS011;24605;50.092;9.182;2022-12-18T00:51:31;39.83;;;16.25;;
38851;SDS011;24605;50.092;9.182;2022-12-18T00:53:58;37.33;;;15.93;;
38851;SDS011;24605;50.092;9.182;2022-12-18T00:56:24;38.88;;;16.67;;
38851;SDS011;24605;50.092;9.182;2022-12-18T00:58:51;39.63;;;15.77;;
38851;SDS011;24605;50.092;9.182;2022-12-18T01:01:17;39.90;;;16.27;;
38851;SDS011;24605;50.092;9.182;2022-12-18T01:03:45;40.85;;;15.90;;
38851;SDS011;24605;50.092;9.182;2022-12-18T01:06:13;34.70;;;15.18;;
38851;SDS011;24605;50.092;9.182;2022-12-18T01:08:41;37.90;;;15.13;;
38851;SDS011;24605;50.092;9.182;2022-12-18T01:11:08;39.00;;;15.18;;
38851;SDS011;24605;50.092;9.182;2022-12-18T01:13:36;40.60;;;17.45;;
38851;SDS011;24605;50.092;9.182;2022-12-18T01:16:03;37.63;;;15.85;;
38851;SDS011;24605;50.092;9.182;2022-12-18T01:18:30;38.63;;;15.38;;
38851;SDS011;24605;50.092;9.182;2022-12-18T01:20:58;33.38;;;14.63;;
38851;SDS011;24605;50.092;9.182;2022-12-18T01:23:24;38.38;;;16.58;;
38851;SDS011;24605;50.092;9.182;2022-12-18T01:25:51;39.83;;;17.13;;
38851;SDS011;24605;50.092;9.182;2022-12-18T01:28:17;41.45;;;15.88;;
38851;SDS011;24605;50.092;9.182;2022-12-18T01:30:44;38.33;;;15.27;;
38851;SDS011;24605;50.092;9.182;2022-12-18T01:33:10;40.85;;;16.52;;
38851;SDS011;24605;50.092;9.182;2022-12-18T01:35:39;41.80;;;15.80;;
38851;SDS011;24605;50.092;9.182;2022-12-18T01:38:08;48.13;;;17.35;;
38851;SDS011;24605;50.092;9.182;2022-12-18T01:40:35;41.47;;;16.40;;
38851;SDS011;24605;50.092;9.182;2022-12-18T01:43:01;42.08;;;15.90;;
38851;SDS011;24605;50.092;9.182;2022-12-18T01:45:29;46.63;;;18.25;;
38851;SDS011;24605;50.092;9.182;2022-12-18T01:47:57;41.05;;;16.67;;
38851;SDS011;24605;50.092;9.182;2022-12-18T01:50:27;48.40;;;17.10;;
38851;SDS011;24605;50.092;9.182;2022-12-18T01:52:57;35.25;;;15.90;;
38851;SDS011;24605;50.092;9.182;2022-12-18T01:55:28;42.85;;;16.83;;
38851;SDS011;24605;50.092;9.182;2022-12-18T01:57:57;38.80;;;15.68;;
38851;SDS011;24605;50.092;9.182;2022-12-18T02:00:25;41.28;;;16.73;;
38851;SDS011;24605;50.092;9.182;2022-12-18T02:02:53;46.40;;;18.08;;
38851;SDS011;24605;50.092;9.182;2022-12-18T02:05:22;44.80;;;18.10;;
38851;SDS011;24605;50.092;9.182;2022-12-18T02:07:59;40.78;;;16.45;;
38851;SDS011;24605;50.092;9.182;2022-12-18T02:10:37;48.38;;;17.80;;
38851;SDS011;24605;50.092;9.182;2022-12-18T02:13:12;45.30;;;16.98;;
38851;SDS011;24605;50.092;9.182;2022-12-18T02:15:47;45.47;;;16.67;;
38851;SDS011;24605;50.092;9.182;2022-12-18T02:18:22;44.30;;;16.42;;
38851;SDS011;24605;50.092;9.182;2022-12-18T02:20:55;43.17;;;17.60;;
38851;SDS011;24605;50.092;9.182;2022-12-18T02:23:38;42.60;;;16.80;;
38851;SDS011;24605;50.092;9.182;2022-12-18T02:26:26;47.55;;;18.55;;
38851;SDS011;24605;50.092;9.182;2022-12-18T02:28:59;51.43;;;18.27;;
38851;SDS011;24605;50.092;9.182;2022-12-18T02:31:31;46.33;;;16.85;;
38851;SDS011;24605;50.092;9.182;2022-12-18T02:34:03;46.75;;;17.15;;
38851;SDS011;24605;50.092;9.182;2022-12-18T02:36:32;42.13;;;16.30;;
38851;SDS011;24605;50.092;9.182;2022-12-18T02:39:01;44.03;;;16.75;;
38851;SDS011;24605;50.092;9.182;2022-12-18T02:41:29;39.65;;;16.42;;
38851;SDS011;24605;50.092;9.182;2022-12-18T02:43:57;36.60;;;16.45;;
38851;SDS011;24605;50.092;9.182;2022-12-18T02:46:27;48.28;;;17.00;;
38851;SDS011;24605;50.092;9.182;2022-12-18T02:49:01;39.92;;;16.08;;
38851;SDS011;24605;50.092;9.182;2022-12-18T02:51:33;41.22;;;16.48;;
38851;SDS011;24605;50.092;9.182;2022-12-18T02:54:09;46.10;;;16.33;;
38851;SDS011;24605;50.092;9.182;2022-12-18T02:56:45;40.83;;;16.55;;
38851;SDS011;24605;50.092;9.182;2022-12-18T02:59:17;38.22;;;17.00;;
38851;SDS011;24605;50.092;9.182;2022-12-18T03:01:49;44.03;;;17.80;;
38851;SDS011;24605;50.092;9.182;2022-12-18T03:04:22;45.95;;;18.70;;
38851;SDS011;24605;50.092;9.182;2022-12-18T03:06:53;46.50;;;16.40;;
38851;SDS011;24605;50.092;9.182;2022-12-18T03:09:24;41.55;;;17.25;;
38851;SDS011;24605;50.092;9.182;2022-12-18T03:12:05;47.15;;;16.95;;
38851;SDS011;24605;50.092;9.182;2022-12-18T03:14:52;40.80;;;16.52;;
38851;SDS011;24605;50.092;9.182;2022-12-18T03:17:25;45.53;;;16.77;;
38851;SDS011;24605;50.092;9.182;2022-12-18T03:19:54;42.97;;;17.73;;
38851;SDS011;24605;50.092;9.182;2022-12-18T03:22:25;47.35;;;17.13;;
38851;SDS011;24605;50.092;9.182;2022-12-18T03:24:55;44.17;;;16.88;;
38851;SDS011;24605;50.092;9.182;2022-12-18T03:27:24;44.72;;;17.35;;
38851;SDS011;24605;50.092;9.182;2022-12-18T03:29:54;40.17;;;16.58;;
38851;SDS011;24605;50.092;9.182;2022-12-18T03:32:32;45.65;;;17.75;;
38851;SDS011;24605;50.092;9.182;2022-12-18T03:35:04;48.95;;;17.95;;
38851;SDS011;24605;50.092;9.182;2022-12-18T03:37:33;41.95;;;16.38;;
38851;SDS011;24605;50.092;9.182;2022-12-18T03:39:59;50.10;;;18.02;;
38851;SDS011;24605;50.092;9.182;2022-12-18T03:42:28;48.13;;;17.75;;
38851;SDS011;24605;50.092;9.182;2022-12-18T03:45:01;42.33;;;15.77;;
38851;SDS011;24605;50.092;9.182;2022-12-18T03:47:35;45.78;;;17.42;;
38851;SDS011;24605;50.092;9.182;2022-12-18T03:50:09;45.58;;;17.90;;
38851;SDS011;24605;50.092;9.182;2022-12-18T03:52:40;43.70;;;17.08;;
38851;SDS011;24605;50.092;9.182;2022-12-18T03:55:12;46.80;;;17.60;;
38851;SDS011;24605;50.092;9.182;2022-12-18T03:57:40;42.45;;;17.25;;
38851;SDS011;24605;50.092;9.182;2022-12-18T04:00:09;50.65;;;17.95;;
38851;SDS011;24605;50.092;9.182;2022-12-18T04:02:39;44.53;;;18.45;;
38851;SDS011;24605;50.092;9.182;2022-12-18T04:05:09;45.55;;;18.60;;
38851;SDS011;24605;50.092;9.182;2022-12-18T04:07:37;48.60;;;18.38;;
38851;SDS011;24605;50.092;9.182;2022-12-18T04:10:05;48.13;;;18.55;;
38851;SDS011;24605;50.092;9.182;2022-12-18T04:12:33;43.88;;;16.52;;
38851;SDS011;24605;50.092;9.182;2022-12-18T04:15:00;40.90;;;17.92;;
38851;SDS011;24605;50.092;9.182;2022-12-18T04:17:27;48.72;;;17.92;;
38851;SDS011;24605;50.092;9.182;2022-12-18T04:19:54;43.25;;;16.35;;
38851;SDS011;24605;50.092;9.182;2022-12-18T04:22:21;45.10;;;17.02;;
38851;SDS011;24605;50.092;9.182;2022-12-18T04:24:47;40.42;;;15.93;;
38851;SDS011;24605;50.092;9.182;2022-12-18T04:27:14;42.60;;;16.38;;
38851;SDS011;24605;50.092;9.182;2022-12-18T04:29:40;40.55;;;17.45;;
38851;SDS011;24605;50.092;9.182;2022-12-18T04:32:08;47.47;;;17.48;;
38851;SDS011;24605;50.092;9.182;2022-12-18T04:34:35;43.30;;;16.58;;
38851;SDS011;24605;50.092;9.182;2022-12-18T04:37:01;44.83;;;16.60;;
38851;SDS011;24605;50.092;9.182;2022-12-18T04:39:29;39.90;;;16.20;;
38851;SDS011;24605;50.092;9.182;2022-12-18T04:41:55;43.72;;;17.08;;
38851;SDS011;24605;50.092;9.182;2022-12-18T04:44:22;41.65;;;17.63;;
38851;SDS011;24605;50.092;9.182;2022-12-18T04:46:48;44.30;;;16.33;;
38851;SDS011;24605;50.092;9.182;2022-12-18T04:49:16;42.20;;;15.90;;
38851;SDS011;24605;50.092;9.182;2022-12-18T04:51:42;42.90;;;16.20;;
38851;SDS011;24605;50.092;9.182;2022-12-18T04:54:09;42.58;;;16.95;;
38851;SDS011;24605;50.092;9.182;2022-12-18T04:56:35;45.85;;;16.77;;
38851;SDS011;24605;50.092;9.182;2022-12-18T04:59:02;43.20;;;16.23;;
38851;SDS011;24605;50.092;9.182;2022-12-18T05:01:28;46.95;;;16.98;;
38851;SDS011;24605;50.092;9.182;2022-12-18T05:03:55;43.55;;;17.88;;
38851;SDS011;24605;50.092;9.182;2022-12-18T05:06:23;46.35;;;17.65;;
38851;SDS011;24605;50.092;9.182;2022-12-18T05:08:49;39.00;;;15.57;;
38851;SDS011;24605;50.092;9.182;2022-12-18T05:11:16;47.05;;;18.52;;
38851;SDS011;24605;50.092;9.182;2022-12-18T05:13:43;52.28;;;24.92;;
38851;SDS011;24605;50.092;9.182;2022-12-18T05:16:10;48.83;;;22.55;;
38851;SDS011;24605;50.092;9.182;2022-12-18T05:18:37;48.80;;;16.95;;
38851;SDS011;24605;50.092;9.182;2022-12-18T05:21:04;51.33;;;17.92;;
38851;SDS011;24605;50.092;9.182;2022-12-18T05:23:32;49.10;;;17.25;;
38851;SDS011;24605;50.092;9.182;2022-12-18T05:26:00;40.28;;;15.65;;
38851;SDS011;24605;50.092;9.182;2022-12-18T05:28:29;40.25;;;16.15;;
38851;SDS011;24605;50.092;9.182;2022-12-18T05:30:59;46.88;;;16.63;;
38851;SDS011;24605;50.092;9.182;2022-12-18T05:33:28;40.80;;;15.95;;
38851;SDS011;24605;50.092;9.182;2022-12-18T05:35:56;51.13;;;19.00;;
38851;SDS011;24605;50.092;9.182;2022-12-18T05:38:24;46.17;;;17.55;;
38851;SDS011;24605;50.092;9.182;2022-12-18T05:40:54;50.75;;;16.17;;
38851;SDS011;24605;50.092;9.182;2022-12-18T05:43:21;47.42;;;17.65;;
38851;SDS011;24605;50.092;9.182;2022-12-18T05:45:49;48.00;;;17.30;;
38851;SDS011;24605;50.092;9.182;2022-12-18T05:48:16;44.47;;;16.30;;
38851;SDS011;24605;50.092;9.182;2022-12-18T05:50:44;40.65;;;15.40;;
38851;SDS011;24605;50.092;9.182;2022-12-18T05:53:12;44.45;;;17.17;;
38851;SDS011;24605;50.092;9.182;2022-12-18T05:55:39;43.78;;;15.57;;
38851;SDS011;24605;50.092;9.182;2022-12-18T05:58:09;46.90;;;17.00;;
38851;SDS011;24605;50.092;9.182;2022-12-18T06:00:37;49.20;;;17.50;;
38851;SDS011;24605;50.092;9.182;2022-12-18T06:03:05;51.13;;;19.85;;
38851;SDS011;24605;50.092;9.182;2022-12-18T06:05:34;54.38;;;20.10;;
38851;SDS011;24605;50.092;9.182;2022-12-18T06:08:00;50.47;;;21.38;;
38851;SDS011;24605;50.092;9.182;2022-12-18T06:10:27;45.53;;;17.23;;
38851;SDS011;24605;50.092;9.182;2022-12-18T06:12:55;45.30;;;18.50;;
38851;SDS011;24605;50.092;9.182;2022-12-18T06:15:23;44.28;;;18.02;;
38851;SDS011;24605;50.092;9.182;2022-12-18T06:17:50;47.33;;;17.98;;
38851;SDS011;24605;50.092;9.182;2022-12-18T06:20:16;47.13;;;17.35;;
38851;SDS011;24605;50.092;9.182;2022-12-18T06:22:43;40.63;;;16.98;;
38851;SDS011;24605;50.092;9.182;2022-12-18T06:25:10;50.75;;;19.27;;
38851;SDS011;24605;50.092;9.182;2022-12-18T06:27:37;47.08;;;18.00;;
38851;SDS011;24605;50.092;9.182;2022-12-18T06:30:03;39.97;;;17.27;;
38851;SDS011;24605;50.092;9.182;2022-12-18T06:32:32;49.95;;;16.88;;
38851;SDS011;24605;50.092;9.182;2022-12-18T06:34:59;42.10;;;18.52;;
38851;SDS011;24605;50.092;9.182;2022-12-18T06:37:25;42.50;;;16.15;;
38851;SDS011;24605;50.092;9.182;2022-12-18T06:39:52;39.80;;;15.45;;
38851;SDS011;24605;50.092;9.182;2022-12-18T06:42:18;42.35;;;16.45;;
38851;SDS011;24605;50.092;9.182;2022-12-18T06:44:48;45.20;;;16.17;;
38851;SDS011;24605;50.092;9.182;2022-12-18T06:47:14;36.90;;;14.93;;
38851;SDS011;24605;50.092;9.182;2022-12-18T06:49:42;36.70;;;16.17;;
38851;SDS011;24605;50.092;9.182;2022-12-18T06:52:09;41.83;;;16.27;;
38851;SDS011;24605;50.092;9.182;2022-12-18T06:54:35;38.80;;;14.77;;
38851;SDS011;24605;50.092;9.182;2022-12-18T06:57:02;43.35;;;15.55;;
38851;SDS011;24605;50.092;9.182;2022-12-18T06:59:28;43.45;;;15.60;;
38851;SDS011;24605;50.092;9.182;2022-12-18T07:01:55;40.83;;;16.08;;
38851;SDS011;24605;50.092;9.182;2022-12-18T07:04:22;36.10;;;14.57;;
38851;SDS011;24605;50.092;9.182;2022-12-18T07:06:54;39.80;;;15.88;;
38851;SDS011;24605;50.092;9.182;2022-12-18T07:09:20;42.95;;;16.55;;
38851;SDS011;24605;50.092;9.182;2022-12-18T07:11:47;38.17;;;15.65;;
38851;SDS011;24605;50.092;9.182;2022-12-18T07:14:13;35.05;;;14.63;;
38851;SDS011;24605;50.092;9.182;2022-12-18T07:16:40;40.13;;;14.65;;
38851;SDS011;24605;50.092;9.182;2022-12-18T07:19:07;46.15;;;16.48;;
38851;SDS011;24605;50.092;9.182;2022-12-18T07:21:34;37.60;;;14.25;;
38851;SDS011;24605;50.092;9.182;2022-12-18T07:24:02;40.30;;;16.55;;
38851;SDS011;24605;50.092;9.182;2022-12-18T07:26:29;39.63;;;15.52;;
38851;SDS011;24605;50.092;9.182;2022-12-18T07:28:56;39.58;;;14.95;;
38851;SDS011;24605;50.092;9.182;2022-12-18T07:31:23;38.50;;;15.82;;
38851;SDS011;24605;50.092;9.182;2022-12-18T07:33:50;35.83;;;14.38;;
38851;SDS011;24605;50.092;9.182;2022-12-18T07:36:17;37.17;;;15.88;;
38851;SDS011;24605;50.092;9.182;2022-12-18T07:38:46;44.45;;;16.23;;
38851;SDS011;24605;50.092;9.182;2022-12-18T07:41:14;35.60;;;15.43;;
38851;SDS011;24605;50.092;9.182;2022-12-18T07:43:41;42.03;;;15.52;;
38851;SDS011;24605;50.092;9.182;2022-12-18T07:46:08;38.80;;;16.58;;
38851;SDS011;24605;50.092;9.182;2022-12-18T07:48:35;39.20;;;16.42;;
38851;SDS011;24605;50.092;9.182;2022-12-18T07:51:02;38.00;;;15.32;;
38851;SDS011;24605;50.092;9.182;2022-12-18T07:53:34;36.47;;;15.93;;
38851;SDS011;24605;50.092;9.182;2022-12-18T07:56:03;35.80;;;14.45;;
38851;SDS011;24605;50.092;9.182;2022-12-18T07:58:32;40.53;;;15.80;;
38851;SDS011;24605;50.092;9.182;2022-12-18T08:01:02;38.97;;;15.43;;
38851;SDS011;24605;50.092;9.182;2022-12-18T08:03:29;44.40;;;21.92;;
38851;SDS011;24605;50.092;9.182;2022-12-18T08:05:57;34.35;;;15.27;;
38851;SDS011;24605;50.092;9.182;2022-12-18T08:08:25;38.45;;;16.80;;
38851;SDS011;24605;50.092;9.182;2022-12-18T08:10:51;41.17;;;15.88;;
38851;SDS011;24605;50.092;9.182;2022-12-18T08:13:18;38.38;;;14.90;;
38851;SDS011;24605;50.092;9.182;2022-12-18T08:15:45;40.63;;;15.40;;
38851;SDS011;24605;50.092;9.182;2022-12-18T08:18:12;42.83;;;15.13;;
38851;SDS011;24605;50.092;9.182;2022-12-18T08:20:38;38.60;;;15.23;;
38851;SDS011;24605;50.092;9.182;2022-12-18T08:23:05;37.88;;;15.70;;
38851;SDS011;24605;50.092;9.182;2022-12-18T08:25:31;37.00;;;14.73;;
38851;SDS011;24605;50.092;9.182;2022-12-18T08:27:58;37.42;;;15.82;;
38851;SDS011;24605;50.092;9.182;2022-12-18T08:30:24;34.90;;;14.65;;
38851;SDS011;24605;50.092;9.182;2022-12-18T08:32:52;41.45;;;15.02;;
38851;SDS011;24605;50.092;9.182;2022-12-18T08:35:19;38.90;;;15.07;;
38851;SDS011;24605;50.092;9.182;2022-12-18T08:37:45;38.78;;;16.67;;
38851;SDS011;24605;50.092;9.182;2022-12-18T08:40:12;37.30;;;14.68;;
38851;SDS011;24605;50.092;9.182;2022-12-18T08:42:38;38.95;;;15.30;;
38851;SDS011;24605;50.092;9.182;2022-12-18T08:45:23;39.53;;;15.85;;
38851;SDS011;24605;50.092;9.182;2022-12-18T08:47:49;39.90;;;15.68;;
38851;SDS011;24605;50.092;9.182;2022-12-18T08:50:17;40.88;;;15.25;;
38851;SDS011;24605;50.092;9.182;2022-12-18T08:52:45;35.45;;;15.60;;
38851;SDS011;24605;50.092;9.182;2022-12-18T08:55:11;39.90;;;15.15;;
38851;SDS011;24605;50.092;9.182;2022-12-18T08:57:37;41.40;;;16.00;;
38851;SDS011;24605;50.092;9.182;2022-12-18T09:00:04;36.17;;;14.52;;
38851;SDS011;24605;50.092;9.182;2022-12-18T09:02:32;39.35;;;15.88;;
38851;SDS011;24605;50.092;9.182;2022-12-18T09:04:59;40.42;;;16.50;;
38851;SDS011;24605;50.092;9.182;2022-12-18T09:07:27;44.13;;;17.38;;
38851;SDS011;24605;50.092;9.182;2022-12-18T09:09:53;40.45;;;15.77;;
38851;SDS011;24605;50.092;9.182;2022-12-18T09:12:20;38.72;;;16.63;;
38851;SDS011;24605;50.092;9.182;2022-12-18T09:14:47;41.00;;;17.02;;
38851;SDS011;24605;50.092;9.182;2022-12-18T09:17:13;52.80;;;20.48;;
38851;SDS011;24605;50.092;9.182;2022-12-18T09:19:39;40.90;;;17.40;;
38851;SDS011;24605;50.092;9.182;2022-12-18T09:22:06;32.65;;;14.70;;
38851;SDS011;24605;50.092;9.182;2022-12-18T09:24:34;41.65;;;16.58;;
38851;SDS011;24605;50.092;9.182;2022-12-18T09:27:00;36.35;;;15.30;;
38851;SDS011;24605;50.092;9.182;2022-12-18T09:29:27;36.58;;;14.80;;
38851;SDS011;24605;50.092;9.182;2022-12-18T09:31:53;37.60;;;16.08;;
38851;SDS011;24605;50.092;9.182;2022-12-18T09:34:20;43.65;;;17.33;;
38851;SDS011;24605;50.092;9.182;2022-12-18T09:36:47;40.58;;;16.48;;
38851;SDS011;24605;50.092;9.182;2022-12-18T09:39:13;43.08;;;17.35;;
38851;SDS011;24605;50.092;9.182;2022-12-18T09:41:46;39.88;;;15.80;;
38851;SDS011;24605;50.092;9.182;2022-12-18T09:44:20;40.20;;;15.57;;
38851;SDS011;24605;50.092;9.182;2022-12-18T09:46:51;41.78;;;16.75;;
38851;SDS011;24605;50.092;9.182;2022-12-18T09:51:53;36.45;;;15.70;;
38851;SDS011;24605;50.092;9.182;2022-12-18T09:54:24;37.92;;;14.98;;
38851;SDS011;24605;50.092;9.182;2022-12-18T09:56:57;34.95;;;15.43;;
38851;SDS011;24605;50.092;9.182;2022-12-18T09:59:25;37.65;;;15.65;;
38851;SDS011;24605;50.092;9.182;2022-12-18T10:01:56;37.70;;;15.30;;
38851;SDS011;24605;50.092;9.182;2022-12-18T10:04:23;40.92;;;15.43;;
38851;SDS011;24605;50.092;9.182;2022-12-18T10:06:52;43.92;;;17.83;;
38851;SDS011;24605;50.092;9.182;2022-12-18T10:09:27;40.88;;;16.02;;
38851;SDS011;24605;50.092;9.182;2022-12-18T10:12:04;38.95;;;15.30;;
38851;SDS011;24605;50.092;9.182;2022-12-18T10:14:39;39.78;;;15.02;;
38851;SDS011;24605;50.092;9.182;2022-12-18T10:17:13;39.55;;;15.88;;
38851;SDS011;24605;50.092;9.182;2022-12-18T10:19:47;41.40;;;16.50;;
38851;SDS011;24605;50.092;9.182;2022-12-18T10:22:21;39.60;;;15.88;;
38851;SDS011;24605;50.092;9.182;2022-12-18T10:24:58;41.67;;;17.30;;
38851;SDS011;24605;50.092;9.182;2022-12-18T10:27:31;43.60;;;16.50;;
38851;SDS011;24605;50.092;9.182;2022-12-18T10:29:57;48.38;;;16.90;;
38851;SDS011;24605;50.092;9.182;2022-12-18T10:32:25;42.95;;;16.27;;
38851;SDS011;24605;50.092;9.182;2022-12-18T10:34:56;50.35;;;18.73;;
38851;SDS011;24605;50.092;9.182;2022-12-18T10:37:24;44.78;;;15.88;;
38851;SDS011;24605;50.092;9.182;2022-12-18T10:40:06;43.88;;;16.90;;
38851;SDS011;24605;50.092;9.182;2022-12-18T10:42:36;70.55;;;25.40;;
38851;SDS011;24605;50.092;9.182;2022-12-18T10:45:11;44.83;;;16.52;;
38851;SDS011;24605;50.092;9.182;2022-12-18T10:47:41;43.22;;;15.73;;
38851;SDS011;24605;50.092;9.182;2022-12-18T10:50:16;47.83;;;18.48;;
38851;SDS011;24605;50.092;9.182;2022-12-18T10:52:52;48.00;;;17.48;;
38851;SDS011;24605;50.092;9.182;2022-12-18T10:57:48;49.30;;;17.92;;
38851;SDS011;24605;50.092;9.182;2022-12-18T11:00:22;50.65;;;18.05;;
38851;SDS011;24605;50.092;9.182;2022-12-18T11:02:50;53.05;;;19.02;;
38851;SDS011;24605;50.092;9.182;2022-12-18T11:05:25;44.92;;;16.90;;
38851;SDS011;24605;50.092;9.182;2022-12-18T11:07:53;52.30;;;17.67;;
38851;SDS011;24605;50.092;9.182;2022-12-18T11:10:21;52.22;;;19.70;;
38851;SDS011;24605;50.092;9.182;2022-12-18T11:12:52;52.78;;;19.52;;
38851;SDS011;24605;50.092;9.182;2022-12-18T11:15:20;54.05;;;18.42;;
38851;SDS011;24605;50.092;9.182;2022-12-18T11:17:49;45.13;;;17.40;;
38851;SDS011;24605;50.092;9.182;2022-12-18T11:20:22;53.95;;;19.70;;
38851;SDS011;24605;50.092;9.182;2022-12-18T11:22:57;52.72;;;18.23;;
38851;SDS011;24605;50.092;9.182;2022-12-18T11:25:29;45.35;;;17.38;;
38851;SDS011;24605;50.092;9.182;2022-12-18T11:27:57;56.65;;;19.67;;
38851;SDS011;24605;50.092;9.182;2022-12-18T11:30:26;53.63;;;19.48;;
38851;SDS011;24605;50.092;9.182;2022-12-18T11:32:55;50.17;;;18.27;;
38851;SDS011;24605;50.092;9.182;2022-12-18T11:35:35;51.47;;;17.95;;
38851;SDS011;24605;50.092;9.182;2022-12-18T11:38:11;52.90;;;18.38;;
38851;SDS011;24605;50.092;9.182;2022-12-18T11:40:44;51.17;;;19.48;;
38851;SDS011;24605;50.092;9.182;2022-12-18T11:43:17;50.17;;;18.65;;
38851;SDS011;24605;50.092;9.182;2022-12-18T11:45:49;49.20;;;18.15;;
38851;SDS011;24605;50.092;9.182;2022-12-18T11:48:21;46.40;;;17.92;;
38851;SDS011;24605;50.092;9.182;2022-12-18T11:50:52;48.80;;;19.20;;
38851;SDS011;24605;50.092;9.182;2022-12-18T11:53:21;61.33;;;19.05;;
38851;SDS011;24605;50.092;9.182;2022-12-18T11:55:50;50.03;;;19.60;;
38851;SDS011;24605;50.092;9.182;2022-12-18T12:01:00;47.22;;;16.35;;
38851;SDS011;24605;50.092;9.182;2022-12-18T12:03:39;51.00;;;18.30;;
38851;SDS011;24605;50.092;9.182;2022-12-18T12:06:23;49.80;;;17.85;;
38851;SDS011;24605;50.092;9.182;2022-12-18T12:09:01;46.08;;;17.23;;
38851;SDS011;24605;50.092;9.182;2022-12-18T12:11:41;48.58;;;17.55;;
38851;SDS011;24605;50.092;9.182;2022-12-18T12:14:27;49.10;;;18.13;;
38851;SDS011;24605;50.092;9.182;2022-12-18T12:17:06;46.97;;;17.48;;
38851;SDS011;24605;50.092;9.182;2022-12-18T12:19:42;48.28;;;17.48;;
38851;SDS011;24605;50.092;9.182;2022-12-18T12:22:17;48.35;;;18.25;;
38851;SDS011;24605;50.092;9.182;2022-12-18T12:24:54;57.42;;;18.50;;
38851;SDS011;24605;50.092;9.182;2022-12-18T12:27:36;53.38;;;18.95;;
38851;SDS011;24605;50.092;9.182;2022-12-18T12:30:11;53.10;;;18.02;;
38851;SDS011;24605;50.092;9.182;2022-12-18T12:32:47;48.78;;;17.75;;
38851;SDS011;24605;50.092;9.182;2022-12-18T12:37:56;49.75;;;20.20;;
38851;SDS011;24605;50.092;9.182;2022-12-18T12:40:31;54.38;;;18.88;;
38851;SDS011;24605;50.092;9.182;2022-12-18T12:43:03;58.33;;;19.02;;
38851;SDS011;24605;50.092;9.182;2022-12-18T12:45:41;53.17;;;19.55;;
38851;SDS011;24605;50.092;9.182;2022-12-18T12:48:15;52.88;;;19.85;;
38851;SDS011;24605;50.092;9.182;2022-12-18T12:50:45;53.13;;;20.77;;
38851;SDS011;24605;50.092;9.182;2022-12-18T12:53:14;50.72;;;17.48;;
38851;SDS011;24605;50.092;9.182;2022-12-18T12:55:47;52.15;;;17.77;;
38851;SDS011;24605;50.092;9.182;2022-12-18T12:58:14;50.97;;;18.60;;
38851;SDS011;24605;50.092;9.182;2022-12-18T13:00:52;55.85;;;20.67;;
38851;SDS011;24605;50.092;9.182;2022-12-18T13:03:29;50.28;;;18.63;;
38851;SDS011;24605;50.092;9.182;2022-12-18T13:06:08;50.92;;;19.02;;
38851;SDS011;24605;50.092;9.182;2022-12-18T13:08:53;53.67;;;19.90;;
38851;SDS011;24605;50.092;9.182;2022-12-18T13:11:29;50.85;;;20.08;;
38851;SDS011;24605;50.092;9.182;2022-12-18T13:14:23;49.38;;;17.45;;
38851;SDS011;24605;50.092;9.182;2022-12-18T13:16:57;48.83;;;18.67;;
38851;SDS011;24605;50.092;9.182;2022-12-18T13:19:40;51.58;;;19.70;;
38851;SDS011;24605;50.092;9.182;2022-12-18T13:22:15;49.85;;;18.67;;
38851;SDS011;24605;50.092;9.182;2022-12-18T13:24:47;53.22;;;19.92;;
38851;SDS011;24605;50.092;9.182;2022-12-18T13:36:14;52.50;;;19.80;;
38851;SDS011;24605;50.092;9.182;2022-12-18T13:38:55;53.03;;;19.70;;
38851;SDS011;24605;50.092;9.182;2022-12-18T13:41:36;53.20;;;19.65;;
38851;SDS011;24605;50.092;9.182;2022-12-18T13:44:10;53.33;;;19.52;;
38851;SDS011;24605;50.092;9.182;2022-12-18T13:46:42;50.60;;;19.15;;
38851;SDS011;24605;50.092;9.182;2022-12-18T13:49:17;52.33;;;17.75;;
38851;SDS011;24605;50.092;9.182;2022-12-18T13:51:48;49.22;;;18.88;;
38851;SDS011;24605;50.092;9.182;2022-12-18T13:54:18;51.20;;;18.35;;
38851;SDS011;24605;50.092;9.182;2022-12-18T13:56:47;47.50;;;17.70;;
38851;SDS011;24605;50.092;9.182;2022-12-18T13:59:16;49.45;;;18.38;;
38851;SDS011;24605;50.092;9.182;2022-12-18T14:01:46;49.55;;;17.92;;
38851;SDS011;24605;50.092;9.182;2022-12-18T14:04:19;50.03;;;17.92;;
38851;SDS011;24605;50.092;9.182;2022-12-18T14:06:48;55.55;;;19.45;;
38851;SDS011;24605;50.092;9.182;2022-12-18T14:09:19;52.28;;;19.48;;
38851;SDS011;24605;50.092;9.182;2022-12-18T14:11:49;44.33;;;17.80;;
38851;SDS011;24605;50.092;9.182;2022-12-18T14:14:17;50.50;;;19.27;;
38851;SDS011;24605;50.092;9.182;2022-12-18T14:16:45;53.50;;;19.27;;
38851;SDS011;24605;50.092;9.182;2022-12-18T14:19:14;52.30;;;19.75;;
38851;SDS011;24605;50.092;9.182;2022-12-18T14:21:46;49.55;;;19.65;;
38851;SDS011;24605;50.092;9.182;2022-12-18T14:24:13;56.53;;;19.52;;
38851;SDS011;24605;50.092;9.182;2022-12-18T14:26:42;55.25;;;19.00;;
38851;SDS011;24605;50.092;9.182;2022-12-18T14:29:20;52.35;;;19.05;;
38851;SDS011;24605;50.092;9.182;2022-12-18T14:32:05;52.65;;;19.80;;
38851;SDS011;24605;50.092;9.182;2022-12-18T14:34:33;52.08;;;19.38;;
38851;SDS011;24605;50.092;9.182;2022-12-18T14:37:01;52.95;;;20.83;;
38851;SDS011;24605;50.092;9.182;2022-12-18T14:39:27;52.55;;;21.17;;
38851;SDS011;24605;50.092;9.182;2022-12-18T14:41:54;55.75;;;21.85;;
38851;SDS011;24605;50.092;9.182;2022-12-18T14:44:20;55.67;;;21.67;;
38851;SDS011;24605;50.092;9.182;2022-12-18T14:46:47;51.85;;;19.83;;
38851;SDS011;24605;50.092;9.182;2022-12-18T14:49:18;57.08;;;20.27;;
38851;SDS011;24605;50.092;9.182;2022-12-18T14:51:49;52.40;;;21.77;;
38851;SDS011;24605;50.092;9.182;2022-12-18T14:54:19;59.00;;;20.10;;
38851;SDS011;24605;50.092;9.182;2022-12-18T14:56:47;54.60;;;18.88;;